createdAt,value
2023-05-23T00:00:55.422Z,800.00
2023-05-23T00:01:55.491Z,799.00
2023-05-23T00:02:55.491Z,800.00
2023-05-23T00:03:55.471Z,800.00
2023-05-23T00:04:55.384Z,797.00
2023-05-23T00:05:55.370Z,795.00
2023-05-23T00:06:55.374Z,794.00
2023-05-23T00:07:55.363Z,793.00
2023-05-23T00:08:55.355Z,792.00
2023-05-23T00:09:55.346Z,792.00
2023-05-23T00:10:55.339Z,790.00
2023-05-23T00:11:55.451Z,791.00
2023-05-23T00:12:55.331Z,791.00
2023-05-23T00:13:55.316Z,790.00
2023-05-23T00:14:55.335Z,790.00
2023-05-23T00:15:55.301Z,785.00
2023-05-23T00:16:55.362Z,782.00
2023-05-23T00:17:55.318Z,783.00
2023-05-23T00:18:55.303Z,784.00
2023-05-23T00:19:55.271Z,786.00
2023-05-23T00:20:55.267Z,784.00
2023-05-23T00:21:55.256Z,785.00
2023-05-23T00:22:55.248Z,783.00
2023-05-23T00:23:55.237Z,780.00
2023-05-23T00:24:55.233Z,778.00
2023-05-23T00:25:55.252Z,778.00
2023-05-23T00:26:55.221Z,778.00
2023-05-23T00:27:55.362Z,778.00
2023-05-23T00:28:55.211Z,780.00
2023-05-23T00:29:55.197Z,778.00
2023-05-23T00:30:55.200Z,781.00
2023-05-23T00:31:55.187Z,780.00
2023-05-23T00:32:55.235Z,780.00
2023-05-23T00:33:55.181Z,781.00
2023-05-23T00:34:55.164Z,778.00
2023-05-23T00:35:55.165Z,777.00
2023-05-23T00:36:55.152Z,776.00
2023-05-23T00:37:55.145Z,775.00
2023-05-23T00:38:55.144Z,775.00
2023-05-23T00:39:55.128Z,773.00
2023-05-23T00:40:55.133Z,772.00
2023-05-23T00:41:55.115Z,773.00
2023-05-23T00:42:55.102Z,775.00
2023-05-23T00:43:55.214Z,775.00
2023-05-23T00:44:55.091Z,777.00
2023-05-23T00:45:55.090Z,778.00
2023-05-23T00:46:55.549Z,779.00
2023-05-23T00:47:55.095Z,780.00
2023-05-23T00:48:55.070Z,778.00
2023-05-23T00:49:55.064Z,779.00
2023-05-23T00:50:55.054Z,780.00
2023-05-23T00:51:55.058Z,779.00
2023-05-23T00:52:55.049Z,777.00
2023-05-23T00:53:55.029Z,780.00
2023-05-23T00:54:55.024Z,778.00
2023-05-23T00:55:55.032Z,774.00
2023-05-23T00:56:55.039Z,771.00
2023-05-23T00:57:55.005Z,772.00
2023-05-23T00:58:55.004Z,769.00
2023-05-23T00:59:55.114Z,766.00
2023-05-23T01:00:55.006Z,768.00
2023-05-23T01:01:55.039Z,767.00
2023-05-23T01:02:55.189Z,770.00
2023-05-23T01:03:55.041Z,769.00
2023-05-23T01:04:54.949Z,769.00
2023-05-23T01:05:54.960Z,769.00
2023-05-23T01:06:54.947Z,768.00
2023-05-23T01:07:54.927Z,768.00
2023-05-23T01:08:54.922Z,770.00
2023-05-23T01:09:54.916Z,772.00
2023-05-23T01:10:54.916Z,772.00
2023-05-23T01:11:54.915Z,767.00
2023-05-23T01:12:54.914Z,764.00
2023-05-23T01:13:54.912Z,764.00
2023-05-23T01:14:54.910Z,764.00
2023-05-23T01:15:55.062Z,764.00
2023-05-23T01:16:54.938Z,766.00
2023-05-23T01:17:54.953Z,765.00
2023-05-23T01:18:55.225Z,763.00
2023-05-23T01:19:54.916Z,761.00
2023-05-23T01:20:54.911Z,763.00
2023-05-23T01:21:54.912Z,762.00
2023-05-23T01:22:54.914Z,763.00
2023-05-23T01:23:54.913Z,762.00
2023-05-23T01:24:54.924Z,764.00
2023-05-23T01:25:54.918Z,761.00
2023-05-23T01:26:54.915Z,763.00
2023-05-23T01:27:54.919Z,762.00
2023-05-23T01:28:54.936Z,761.00
2023-05-23T01:29:54.916Z,761.00
2023-05-23T01:30:54.918Z,760.00
2023-05-23T01:31:55.102Z,758.00
2023-05-23T01:32:54.966Z,758.00
2023-05-23T01:33:54.906Z,759.00
2023-05-23T01:34:54.911Z,757.00
2023-05-23T01:35:54.899Z,754.00
2023-05-23T01:36:54.894Z,756.00
2023-05-23T01:37:54.919Z,758.00
2023-05-23T01:38:54.908Z,759.00
2023-05-23T01:39:54.897Z,760.00
2023-05-23T01:40:54.896Z,763.00
2023-05-23T01:41:54.931Z,764.00
2023-05-23T01:42:54.895Z,765.00
2023-05-23T01:43:54.909Z,764.00
2023-05-23T01:44:54.903Z,765.00
2023-05-23T01:45:54.964Z,767.00
2023-05-23T01:46:54.905Z,768.00
2023-05-23T01:47:55.074Z,768.00
2023-05-23T01:48:54.926Z,767.00
2023-05-23T01:49:54.919Z,763.00
2023-05-23T01:50:54.933Z,762.00
2023-05-23T01:51:54.928Z,761.00
2023-05-23T01:52:54.945Z,760.00
2023-05-23T01:53:54.937Z,759.00
2023-05-23T01:54:54.929Z,756.00
2023-05-23T01:55:54.932Z,758.00
2023-05-23T01:56:54.939Z,755.00
2023-05-23T01:57:54.926Z,756.00
2023-05-23T01:58:54.935Z,757.00
2023-05-23T01:59:54.956Z,758.00
2023-05-23T02:00:54.940Z,757.00
2023-05-23T02:01:54.940Z,759.00
2023-05-23T02:02:54.990Z,759.00
2023-05-23T02:03:55.085Z,755.00
2023-05-23T02:04:55.020Z,754.00
2023-05-23T02:05:54.963Z,756.00
2023-05-23T02:06:54.954Z,757.00
2023-05-23T02:07:54.965Z,757.00
2023-05-23T02:08:54.971Z,754.00
2023-05-23T02:09:54.977Z,758.00
2023-05-23T02:10:54.976Z,756.00
2023-05-23T02:11:54.998Z,758.00
2023-05-23T02:12:54.995Z,759.00
2023-05-23T02:13:54.987Z,761.00
2023-05-23T02:14:55.002Z,762.00
2023-05-23T02:15:54.999Z,762.00
2023-05-23T02:16:55.083Z,762.00
2023-05-23T02:17:55.054Z,761.00
2023-05-23T02:18:55.087Z,760.00
2023-05-23T02:19:55.157Z,759.00
2023-05-23T02:20:55.033Z,758.00
2023-05-23T02:21:55.034Z,758.00
2023-05-23T02:22:55.029Z,756.00
2023-05-23T02:23:55.045Z,756.00
2023-05-23T02:24:55.065Z,757.00
2023-05-23T02:25:55.049Z,757.00
2023-05-23T02:26:55.049Z,755.00
2023-05-23T02:27:55.061Z,757.00
2023-05-23T02:28:55.083Z,760.00
2023-05-23T02:29:55.077Z,759.00
2023-05-23T02:30:55.080Z,761.00
2023-05-23T02:31:55.080Z,760.00
2023-05-23T02:32:55.119Z,760.00
2023-05-23T02:33:55.097Z,758.00
2023-05-23T02:34:57.282Z,757.00
2023-05-23T02:35:55.232Z,754.00
2023-05-23T02:36:55.098Z,753.00
2023-05-23T02:37:55.090Z,751.00
2023-05-23T02:38:55.079Z,752.00
2023-05-23T02:39:55.104Z,752.00
2023-05-23T02:40:55.065Z,751.00
2023-05-23T02:41:55.059Z,752.00
2023-05-23T02:42:55.051Z,752.00
2023-05-23T02:43:55.043Z,753.00
2023-05-23T02:44:55.037Z,750.00
2023-05-23T02:45:55.081Z,750.00
2023-05-23T02:46:55.024Z,749.00
2023-05-23T02:47:55.031Z,751.00
2023-05-23T02:48:55.011Z,748.00
2023-05-23T02:49:55.000Z,745.00
2023-05-23T02:50:55.001Z,745.00
2023-05-23T02:51:55.109Z,746.00
2023-05-23T02:52:54.979Z,745.00
2023-05-23T02:53:54.981Z,744.00
2023-05-23T02:54:54.974Z,747.00
2023-05-23T02:55:54.980Z,745.00
2023-05-23T02:56:54.961Z,747.00
2023-05-23T02:57:54.969Z,747.00
2023-05-23T02:58:54.972Z,745.00
2023-05-23T02:59:54.952Z,746.00
2023-05-23T03:00:54.934Z,748.00
2023-05-23T03:01:54.979Z,748.00
2023-05-23T03:02:55.005Z,746.00
2023-05-23T03:03:54.975Z,744.00
2023-05-23T03:04:54.910Z,744.00
2023-05-23T03:05:54.907Z,747.00
2023-05-23T03:06:54.888Z,747.00
2023-05-23T03:07:55.018Z,744.00
2023-05-23T03:08:54.957Z,745.00
2023-05-23T03:09:54.871Z,744.00
2023-05-23T03:10:54.871Z,747.00
2023-05-23T03:11:54.856Z,747.00
2023-05-23T03:12:54.855Z,749.00
2023-05-23T03:13:54.906Z,750.00
2023-05-23T03:14:54.832Z,749.00
2023-05-23T03:15:54.846Z,747.00
2023-05-23T03:16:54.818Z,746.00
2023-05-23T03:17:54.848Z,750.00
2023-05-23T03:18:54.852Z,750.00
2023-05-23T03:19:54.808Z,751.00
2023-05-23T03:20:54.792Z,752.00
2023-05-23T03:21:54.784Z,748.00
2023-05-23T03:22:54.779Z,749.00
2023-05-23T03:23:54.901Z,750.00
2023-05-23T03:24:54.762Z,746.00
2023-05-23T03:25:54.754Z,744.00
2023-05-23T03:26:54.750Z,743.00
2023-05-23T03:27:54.742Z,741.00
2023-05-23T03:28:54.726Z,740.00
2023-05-23T03:29:54.715Z,742.00
2023-05-23T03:30:54.710Z,743.00
2023-05-23T03:31:54.818Z,744.00
2023-05-23T03:32:54.756Z,740.00
2023-05-23T03:33:54.691Z,739.00
2023-05-23T03:34:54.696Z,739.00
2023-05-23T03:35:54.678Z,740.00
2023-05-23T03:36:54.676Z,739.00
2023-05-23T03:37:54.682Z,740.00
2023-05-23T03:38:54.648Z,738.00
2023-05-23T03:39:54.775Z,737.00
2023-05-23T03:40:54.641Z,740.00
2023-05-23T03:41:54.634Z,740.00
2023-05-23T03:42:54.615Z,742.00
2023-05-23T03:43:54.608Z,742.00
2023-05-23T03:44:54.604Z,742.00
2023-05-23T03:45:54.665Z,741.00
2023-05-23T03:46:54.606Z,740.00
2023-05-23T03:47:54.621Z,743.00
2023-05-23T03:48:54.576Z,743.00
2023-05-23T03:49:54.587Z,742.00
2023-05-23T03:50:54.596Z,742.00
2023-05-23T03:51:54.560Z,742.00
2023-05-23T03:52:54.602Z,741.00
2023-05-23T03:53:54.537Z,742.00
2023-05-23T03:54:54.554Z,743.00
2023-05-23T03:55:54.655Z,742.00
2023-05-23T03:56:54.523Z,744.00
2023-05-23T03:57:54.626Z,743.00
2023-05-23T03:58:54.529Z,742.00
2023-05-23T03:59:54.518Z,741.00
2023-05-23T04:00:54.503Z,744.00
2023-05-23T04:01:54.561Z,745.00
2023-05-23T04:02:54.687Z,744.00
2023-05-23T04:03:54.604Z,742.00
2023-05-23T04:04:54.535Z,742.00
2023-05-23T04:05:54.549Z,741.00
2023-05-23T04:06:54.554Z,741.00
2023-05-23T04:07:54.565Z,738.00
2023-05-23T04:08:54.572Z,736.00
2023-05-23T04:09:54.590Z,731.00
2023-05-23T04:10:54.606Z,729.00
2023-05-23T04:11:54.749Z,727.00
2023-05-23T04:12:54.635Z,728.00
2023-05-23T04:13:54.640Z,729.00
2023-05-23T04:14:54.639Z,729.00
2023-05-23T04:15:54.696Z,729.00
2023-05-23T04:16:54.643Z,724.00
2023-05-23T04:17:54.674Z,726.00
2023-05-23T04:18:54.737Z,727.00
2023-05-23T04:19:54.659Z,728.00
2023-05-23T04:20:54.678Z,729.00
2023-05-23T04:21:54.679Z,728.00
2023-05-23T04:22:54.697Z,730.00
2023-05-23T04:23:55.271Z,730.00
2023-05-23T04:24:54.712Z,731.00
2023-05-23T04:25:54.738Z,727.00
2023-05-23T04:26:54.738Z,728.00
2023-05-23T04:27:54.892Z,726.00
2023-05-23T04:28:54.780Z,722.00
2023-05-23T04:29:54.781Z,722.00
2023-05-23T04:30:54.855Z,724.00
2023-05-23T04:31:54.808Z,723.00
2023-05-23T04:32:54.918Z,724.00
2023-05-23T04:33:54.852Z,723.00
2023-05-23T04:34:54.844Z,723.00
2023-05-23T04:35:54.846Z,723.00
2023-05-23T04:36:54.871Z,724.00
2023-05-23T04:37:54.876Z,723.00
2023-05-23T04:38:54.930Z,721.00
2023-05-23T04:39:54.907Z,722.00
2023-05-23T04:40:54.927Z,723.00
2023-05-23T04:41:54.922Z,722.00
2023-05-23T04:42:54.939Z,718.00
2023-05-23T04:43:55.311Z,718.00
2023-05-23T04:44:54.965Z,719.00
2023-05-23T04:45:54.968Z,720.00
2023-05-23T04:46:55.028Z,720.00
2023-05-23T04:47:55.088Z,720.00
2023-05-23T04:48:55.051Z,719.00
2023-05-23T04:49:55.021Z,719.00
2023-05-23T04:50:55.026Z,719.00
2023-05-23T04:51:55.055Z,723.00
2023-05-23T04:52:55.064Z,721.00
2023-05-23T04:53:55.089Z,719.00
2023-05-23T04:54:55.104Z,718.00
2023-05-23T04:55:55.112Z,720.00
2023-05-23T04:56:55.123Z,722.00
2023-05-23T04:57:55.123Z,723.00
2023-05-23T04:58:55.132Z,724.00
2023-05-23T04:59:55.257Z,723.00
2023-05-23T05:00:55.176Z,722.00
2023-05-23T05:01:55.196Z,724.00
2023-05-23T05:02:55.254Z,723.00
2023-05-23T05:03:55.225Z,723.00
2023-05-23T05:04:55.201Z,722.00
2023-05-23T05:05:55.230Z,719.00
2023-05-23T05:06:55.225Z,720.00
2023-05-23T05:07:55.269Z,720.00
2023-05-23T05:08:55.254Z,721.00
2023-05-23T05:09:55.284Z,721.00
2023-05-23T05:10:55.273Z,720.00
2023-05-23T05:11:55.287Z,718.00
2023-05-23T05:12:55.314Z,718.00
2023-05-23T05:13:55.326Z,723.00
2023-05-23T05:14:55.764Z,723.00
2023-05-23T05:15:55.462Z,722.00
2023-05-23T05:16:55.372Z,721.00
2023-05-23T05:17:55.403Z,722.00
2023-05-23T05:18:55.432Z,721.00
2023-05-23T05:19:55.761Z,722.00
2023-05-23T05:20:55.416Z,721.00
2023-05-23T05:21:55.420Z,718.00
2023-05-23T05:22:55.437Z,715.00
2023-05-23T05:23:55.456Z,719.00
2023-05-23T05:24:55.466Z,719.00
2023-05-23T05:25:55.491Z,718.00
2023-05-23T05:26:55.500Z,715.00
2023-05-23T05:27:55.500Z,714.00
2023-05-23T05:28:55.525Z,715.00
2023-05-23T05:29:55.506Z,714.00
2023-05-23T05:30:55.658Z,714.00
2023-05-23T05:31:55.664Z,717.00
2023-05-23T05:32:55.584Z,719.00
2023-05-23T05:33:55.581Z,720.00
2023-05-23T05:34:55.563Z,720.00
2023-05-23T05:35:56.267Z,723.00
2023-05-23T05:36:55.588Z,723.00
2023-05-23T05:37:55.603Z,724.00
2023-05-23T05:38:55.602Z,722.00
2023-05-23T05:39:55.638Z,722.00
2023-05-23T05:40:55.622Z,724.00
2023-05-23T05:41:55.624Z,724.00
2023-05-23T05:42:55.626Z,723.00
2023-05-23T05:43:55.644Z,727.00
2023-05-23T05:44:55.780Z,727.00
2023-05-23T05:45:55.826Z,730.00
2023-05-23T05:46:55.700Z,728.00
2023-05-23T05:47:55.807Z,726.00
2023-05-23T05:48:55.828Z,723.00
2023-05-23T05:49:55.649Z,723.00
2023-05-23T05:50:55.683Z,722.00
2023-05-23T05:51:55.659Z,724.00
2023-05-23T05:52:55.662Z,727.00
2023-05-23T05:53:55.832Z,730.00
2023-05-23T05:54:55.662Z,735.00
2023-05-23T05:55:55.664Z,749.00
2023-05-23T05:57:11.277Z,752.00
2023-05-23T05:57:58.885Z,762.00
2023-05-23T05:58:56.073Z,810.00
2023-05-23T05:59:55.651Z,810.00
2023-05-23T06:00:55.651Z,820.00
2023-05-23T06:01:55.798Z,879.00
2023-05-23T06:02:55.771Z,893.00
2023-05-23T06:03:56.834Z,899.00
2023-05-23T06:04:55.790Z,905.00
2023-05-23T06:07:56.283Z,965.00
2023-05-23T06:09:56.188Z,990.00
2023-05-23T06:10:56.339Z,1013.00
2023-05-23T06:11:55.940Z,1022.00
2023-05-23T06:12:56.135Z,1028.00
2023-05-23T06:13:55.875Z,1031.00
2023-05-23T06:14:56.377Z,1001.00
2023-05-23T06:15:56.028Z,967.00
2023-05-23T06:16:55.867Z,929.00
2023-05-23T06:17:57.102Z,940.00
2023-05-23T06:18:56.287Z,928.00
2023-05-23T06:19:56.355Z,926.00
2023-05-23T06:20:56.442Z,988.00
2023-05-23T06:21:55.950Z,953.00
2023-05-23T06:22:56.355Z,953.00
2023-05-23T06:23:56.208Z,948.00
2023-05-23T06:24:56.323Z,878.00
2023-05-23T06:25:55.975Z,873.00
2023-05-23T06:26:56.204Z,874.00
2023-05-23T06:27:56.190Z,873.00
2023-05-23T06:28:56.274Z,876.00
2023-05-23T06:29:56.392Z,846.00
2023-05-23T06:30:56.188Z,840.00
2023-05-23T06:31:56.050Z,828.00
2023-05-23T06:32:56.287Z,842.00
2023-05-23T06:33:56.223Z,915.00
2023-05-23T06:34:56.153Z,909.00
2023-05-23T06:35:56.439Z,1000.00
2023-05-23T06:36:57.035Z,1014.00
2023-05-23T06:37:56.298Z,1022.00
2023-05-23T06:38:55.937Z,1033.00
2023-05-23T06:39:56.205Z,1037.00
2023-05-23T06:40:56.220Z,1047.00
2023-05-23T06:41:57.324Z,1060.00
2023-05-23T06:43:05.355Z,1074.00
2023-05-23T06:43:56.245Z,1079.00
2023-05-23T06:46:12.093Z,1082.00
2023-05-23T06:46:56.181Z,1008.00
2023-05-23T06:47:56.414Z,964.00
2023-05-23T06:49:15.048Z,940.00
2023-05-23T06:49:57.713Z,930.00
2023-05-23T06:50:56.378Z,925.00
2023-05-23T06:51:56.702Z,922.00
2023-05-23T06:52:56.883Z,910.00
2023-05-23T06:53:56.182Z,863.00
2023-05-23T06:54:56.288Z,836.00
2023-05-23T06:55:56.176Z,828.00
2023-05-23T06:56:56.306Z,820.00
2023-05-23T06:57:56.014Z,807.00
2023-05-23T06:58:56.289Z,794.00
2023-05-23T06:59:56.323Z,785.00
2023-05-23T07:00:56.170Z,775.00
2023-05-23T07:01:56.395Z,767.00
2023-05-23T07:02:57.152Z,758.00
2023-05-23T07:03:56.281Z,749.00
2023-05-23T07:04:56.886Z,739.00
2023-05-23T07:05:56.387Z,735.00
2023-05-23T07:06:56.367Z,733.00
2023-05-23T07:07:56.737Z,735.00
2023-05-23T07:08:56.339Z,736.00
2023-05-23T07:09:56.348Z,735.00
2023-05-23T07:10:56.761Z,735.00
2023-05-23T07:11:56.524Z,732.00
2023-05-23T07:12:56.664Z,730.00
2023-05-23T07:13:56.391Z,726.00
2023-05-23T07:14:56.299Z,722.00
2023-05-23T07:15:56.314Z,719.00
2023-05-23T07:16:56.399Z,716.00
2023-05-23T07:17:56.402Z,716.00
2023-05-23T07:18:56.453Z,713.00
2023-05-23T07:19:56.461Z,710.00
2023-05-23T07:20:56.471Z,706.00
2023-05-23T07:21:56.830Z,703.00
2023-05-23T07:22:56.541Z,701.00
2023-05-23T07:23:56.698Z,699.00
2023-05-23T07:24:56.671Z,697.00
2023-05-23T07:26:02.376Z,694.00
2023-05-23T07:26:56.650Z,694.00
2023-05-23T07:27:56.631Z,691.00
2023-05-23T07:28:56.632Z,688.00
2023-05-23T07:29:56.832Z,687.00
2023-05-23T07:30:56.621Z,687.00
2023-05-23T07:31:57.619Z,683.00
2023-05-23T07:32:56.818Z,680.00
2023-05-23T07:33:56.823Z,678.00
2023-05-23T07:34:56.843Z,675.00
2023-05-23T07:37:12.221Z,667.00
2023-05-23T07:37:56.812Z,666.00
2023-05-23T07:38:59.823Z,668.00
2023-05-23T07:39:56.813Z,675.00
2023-05-23T07:41:10.677Z,684.00
2023-05-23T07:42:56.551Z,715.00
2023-05-23T07:43:57.611Z,719.00
2023-05-23T07:44:56.812Z,725.00
2023-05-23T07:45:56.524Z,735.00
2023-05-23T07:46:56.673Z,742.00
2023-05-23T07:47:56.849Z,747.00
2023-05-23T07:48:56.493Z,754.00
2023-05-23T07:49:56.818Z,768.00
2023-05-23T07:50:56.473Z,776.00
2023-05-23T07:51:56.466Z,853.00
2023-05-23T07:53:12.090Z,857.00
2023-05-23T07:53:59.645Z,855.00
2023-05-23T07:54:56.844Z,863.00
2023-05-23T07:55:56.454Z,873.00
2023-05-23T07:56:56.505Z,886.00
2023-05-23T07:57:56.458Z,899.00
2023-05-23T07:58:56.415Z,910.00
2023-05-23T07:59:56.814Z,918.00
2023-05-23T08:00:56.432Z,931.00
2023-05-23T08:03:12.100Z,953.00
2023-05-23T08:03:59.615Z,959.00
2023-05-23T08:04:57.390Z,964.00
2023-05-23T08:05:56.827Z,980.00
2023-05-23T08:07:55.571Z,991.00
2023-05-23T08:08:56.351Z,999.00
2023-05-23T08:09:56.821Z,1001.00
2023-05-23T08:10:56.372Z,1017.00
2023-05-23T08:11:56.322Z,1032.00
2023-05-23T08:12:56.534Z,1044.00
2023-05-23T08:13:56.309Z,1058.00
2023-05-23T08:14:56.337Z,1076.00
2023-05-23T08:15:59.564Z,1098.00
2023-05-23T08:16:56.368Z,1112.00
2023-05-23T08:17:56.363Z,1123.00
2023-05-23T08:18:56.326Z,1130.00
2023-05-23T08:19:56.343Z,1142.00
2023-05-23T08:21:03.684Z,1160.00
2023-05-23T08:21:56.264Z,1176.00
2023-05-23T08:22:56.297Z,1193.00
2023-05-23T08:23:56.240Z,1209.00
2023-05-23T08:24:56.234Z,1229.00
2023-05-23T08:25:57.233Z,1251.00
2023-05-23T08:26:56.240Z,1262.00
2023-05-23T08:27:56.215Z,1277.00
2023-05-23T08:28:56.206Z,1292.00
2023-05-23T08:29:56.329Z,1303.00
2023-05-23T08:30:56.195Z,1315.00
2023-05-23T08:31:56.464Z,1328.00
2023-05-23T08:32:56.210Z,1347.00
2023-05-23T08:33:57.171Z,1368.00
2023-05-23T08:34:56.374Z,1400.00
2023-05-23T08:36:03.611Z,1432.00
2023-05-23T08:36:56.259Z,1461.00
2023-05-23T08:37:56.206Z,1471.00
2023-05-23T08:38:56.200Z,1481.00
2023-05-23T08:39:56.387Z,1492.00
2023-05-23T08:40:56.180Z,1505.00
2023-05-23T08:41:56.170Z,1513.00
2023-05-23T08:42:56.244Z,1525.00
2023-05-23T08:43:56.167Z,1545.00
2023-05-23T08:44:56.340Z,1568.00
2023-05-23T08:45:56.166Z,1588.00
2023-05-23T08:46:56.142Z,1601.00
2023-05-23T08:47:56.152Z,1622.00
2023-05-23T08:48:56.131Z,1629.00
2023-05-23T08:49:59.543Z,1639.00
2023-05-23T08:50:56.113Z,1651.00
2023-05-23T08:51:56.116Z,1665.00
2023-05-23T08:52:56.145Z,1677.00
2023-05-23T08:53:59.332Z,1685.00
2023-05-23T08:54:56.093Z,1697.00
2023-05-23T08:55:56.096Z,1709.00
2023-05-23T08:56:57.104Z,1724.00
2023-05-23T08:57:56.122Z,1765.00
2023-05-23T08:58:56.077Z,1908.00
2023-05-23T08:59:56.343Z,1840.00
2023-05-23T09:00:56.048Z,1824.00
2023-05-23T09:01:56.091Z,1820.00
2023-05-23T09:02:56.050Z,1827.00
2023-05-23T09:03:56.024Z,1833.00
2023-05-23T09:04:56.028Z,1849.00
2023-05-23T09:05:56.073Z,1858.00
2023-05-23T09:06:56.014Z,1867.00
2023-05-23T09:07:56.342Z,1873.00
2023-05-23T09:08:56.077Z,1891.00
2023-05-23T09:09:56.359Z,1920.00
2023-05-23T09:10:56.072Z,1943.00
2023-05-23T09:11:56.098Z,1962.00
2023-05-23T09:12:56.126Z,1974.00
2023-05-23T09:13:56.166Z,1989.00
2023-05-23T09:14:56.208Z,2005.00
2023-05-23T09:15:56.241Z,2016.00
2023-05-23T09:16:56.239Z,2028.00
2023-05-23T09:17:56.293Z,2041.00
2023-05-23T09:18:56.317Z,2047.00
2023-05-23T09:19:56.378Z,2054.00
2023-05-23T09:20:56.338Z,2065.00
2023-05-23T09:21:56.330Z,2078.00
2023-05-23T09:22:56.350Z,2092.00
2023-05-23T09:23:56.370Z,2105.00
2023-05-23T09:24:56.851Z,2119.00
2023-05-23T09:25:56.404Z,2141.00
2023-05-23T09:26:56.417Z,2155.00
2023-05-23T09:27:56.446Z,2172.00
2023-05-23T09:28:56.457Z,2185.00
2023-05-23T09:29:56.855Z,2193.00
2023-05-23T09:30:56.512Z,2197.00
2023-05-23T09:31:56.620Z,2198.00
2023-05-23T09:32:57.207Z,2192.00
2023-05-23T09:33:56.564Z,2186.00
2023-05-23T09:34:56.855Z,2172.00
2023-05-23T09:35:56.594Z,2161.00
2023-05-23T09:36:56.618Z,2155.00
2023-05-23T09:37:56.868Z,2146.00
2023-05-23T09:38:56.689Z,2147.00
2023-05-23T09:39:56.945Z,2142.00
2023-05-23T09:40:56.747Z,2141.00
2023-05-23T09:41:56.835Z,2140.00
2023-05-23T09:42:56.826Z,2138.00
2023-05-23T09:43:56.860Z,2137.00
2023-05-23T09:44:57.359Z,2138.00
2023-05-23T09:45:57.361Z,2135.00
2023-05-23T09:46:57.032Z,2133.00
2023-05-23T09:47:57.018Z,2129.00
2023-05-23T09:48:57.064Z,2131.00
2023-05-23T09:49:57.105Z,2135.00
2023-05-23T09:50:57.164Z,2136.00
2023-05-23T09:51:57.172Z,2137.00
2023-05-23T09:52:57.218Z,2137.00
2023-05-23T09:54:00.466Z,2139.00
2023-05-23T09:54:57.274Z,2136.00
2023-05-23T09:55:57.260Z,2132.00
2023-05-23T09:56:58.361Z,2130.00
2023-05-23T09:57:57.234Z,2132.00
2023-05-23T09:58:57.270Z,2130.00
2023-05-23T09:59:57.235Z,2136.00
2023-05-23T10:01:04.863Z,2151.00
2023-05-23T10:01:57.226Z,2166.00
2023-05-23T10:02:57.314Z,2176.00
2023-05-23T10:03:59.664Z,2183.00
2023-05-23T10:04:57.204Z,2187.00
2023-05-23T10:05:57.904Z,2207.00
2023-05-23T10:06:57.215Z,2231.00
2023-05-23T10:07:57.182Z,2245.00
2023-05-23T10:08:57.157Z,2247.00
2023-05-23T10:09:59.044Z,2258.00
2023-05-23T10:10:57.481Z,2270.00
2023-05-23T10:11:57.131Z,2281.00
2023-05-23T10:12:57.390Z,2293.00
2023-05-23T10:13:57.133Z,2298.00
2023-05-23T10:14:57.128Z,2312.00
2023-05-23T10:15:58.220Z,2325.00
2023-05-23T10:16:57.424Z,2336.00
2023-05-23T10:17:57.466Z,2348.00
2023-05-23T10:18:57.122Z,2358.00
2023-05-23T10:19:57.077Z,2376.00
2023-05-23T10:20:57.073Z,2385.00
2023-05-23T10:21:57.380Z,2391.00
2023-05-23T10:22:57.063Z,2395.00
2023-05-23T10:23:57.060Z,2406.00
2023-05-23T10:24:57.373Z,2411.00
2023-05-23T10:25:57.043Z,2423.00
2023-05-23T10:26:57.377Z,2427.00
2023-05-23T10:27:57.079Z,2446.00
2023-05-23T10:28:57.379Z,2428.00
2023-05-23T10:29:57.131Z,2418.00
2023-05-23T10:30:57.193Z,2404.00
2023-05-23T10:31:57.181Z,2395.00
2023-05-23T10:32:57.257Z,2195.00
2023-05-23T10:33:57.382Z,2189.00
2023-05-23T10:34:57.411Z,2183.00
2023-05-23T10:35:57.322Z,2173.00
2023-05-23T10:36:57.374Z,2179.00
2023-05-23T10:37:57.309Z,2186.00
2023-05-23T10:38:57.335Z,2205.00
2023-05-23T10:39:57.495Z,2226.00
2023-05-23T10:40:57.361Z,2249.00
2023-05-23T10:41:57.371Z,2267.00
2023-05-23T10:42:57.371Z,2279.00
2023-05-23T10:43:57.383Z,2294.00
2023-05-23T10:44:58.630Z,2306.00
2023-05-23T10:45:57.441Z,2324.00
2023-05-23T10:46:58.496Z,2344.00
2023-05-23T10:47:57.389Z,2356.00
2023-05-23T10:48:57.378Z,2372.00
2023-05-23T10:49:57.381Z,2385.00
2023-05-23T10:50:57.393Z,2401.00
2023-05-23T10:51:57.369Z,2415.00
2023-05-23T10:52:57.376Z,2437.00
2023-05-23T10:53:57.325Z,2452.00
2023-05-23T10:54:57.338Z,2466.00
2023-05-23T10:55:57.404Z,2480.00
2023-05-23T10:56:57.300Z,2499.00
2023-05-23T10:57:57.299Z,2513.00
2023-05-23T10:58:57.287Z,2532.00
2023-05-23T10:59:57.288Z,2556.00
2023-05-23T11:00:57.383Z,2572.00
2023-05-23T11:01:57.310Z,2590.00
2023-05-23T11:02:57.365Z,2607.00
2023-05-23T11:03:57.469Z,2610.00
2023-05-23T11:04:57.249Z,2617.00
2023-05-23T11:05:57.382Z,2613.00
2023-05-23T11:06:57.250Z,2530.00
2023-05-23T11:07:57.383Z,2447.00
2023-05-23T11:08:57.212Z,2388.00
2023-05-23T11:09:57.385Z,2342.00
2023-05-23T11:10:57.225Z,2262.00
2023-05-23T11:11:57.206Z,2252.00
2023-05-23T11:12:57.421Z,2231.00
2023-05-23T11:13:57.258Z,2198.00
2023-05-23T11:14:57.404Z,2176.00
2023-05-23T11:15:57.212Z,2154.00
2023-05-23T11:16:57.233Z,2113.00
2023-05-23T11:17:58.420Z,2039.00
2023-05-23T11:18:57.418Z,1974.00
2023-05-23T11:20:04.810Z,1951.00
2023-05-23T11:20:57.200Z,2001.00
2023-05-23T11:21:57.176Z,2068.00
2023-05-23T11:22:57.200Z,2055.00
2023-05-23T11:23:57.159Z,2039.00
2023-05-23T11:24:57.421Z,2029.00
2023-05-23T11:25:57.158Z,2023.00
2023-05-23T11:26:57.135Z,2015.00
2023-05-23T11:27:57.403Z,2009.00
2023-05-23T11:28:57.139Z,2004.00
2023-05-23T11:29:58.003Z,1986.00
2023-05-23T11:30:57.121Z,1969.00
2023-05-23T11:31:57.163Z,1953.00
2023-05-23T11:32:57.477Z,1931.00
2023-05-23T11:33:57.089Z,1901.00
2023-05-23T11:34:57.108Z,1876.00
2023-05-23T11:35:57.106Z,1862.00
2023-05-23T11:36:57.160Z,1858.00
2023-05-23T11:38:13.027Z,1857.00
2023-05-23T11:38:57.065Z,1819.00
2023-05-23T11:39:57.433Z,1771.00
2023-05-23T11:40:57.048Z,1777.00
2023-05-23T11:41:57.037Z,1774.00
2023-05-23T11:42:57.050Z,1777.00
2023-05-23T11:43:57.027Z,1785.00
2023-05-23T11:44:57.441Z,1797.00
2023-05-23T11:45:57.058Z,1816.00
2023-05-23T11:46:57.006Z,1864.00
2023-05-23T11:47:57.070Z,1899.00
2023-05-23T11:48:57.007Z,1909.00
2023-05-23T11:49:58.426Z,1934.00
2023-05-23T11:50:56.985Z,1957.00
2023-05-23T11:51:56.977Z,1971.00
2023-05-23T11:52:57.006Z,1974.00
2023-05-23T11:53:56.996Z,1971.00
2023-05-23T11:55:02.068Z,1962.00
2023-05-23T11:55:56.988Z,1953.00
2023-05-23T11:56:56.942Z,1952.00
2023-05-23T11:57:56.932Z,1955.00
2023-05-23T11:58:56.920Z,1953.00
2023-05-23T11:59:56.940Z,1949.00
2023-05-23T12:00:56.913Z,1946.00
2023-05-23T12:01:56.919Z,1943.00
2023-05-23T12:02:57.288Z,1942.00
2023-05-23T12:03:56.965Z,1947.00
2023-05-23T12:04:57.018Z,1946.00
2023-05-23T12:05:56.871Z,1944.00
2023-05-23T12:06:56.914Z,1939.00
2023-05-23T12:07:56.916Z,1934.00
2023-05-23T12:08:56.889Z,1934.00
2023-05-23T12:09:56.998Z,1934.00
2023-05-23T12:10:56.840Z,1932.00
2023-05-23T12:11:56.829Z,1931.00
2023-05-23T12:12:56.828Z,1931.00
2023-05-23T12:13:56.814Z,1930.00
2023-05-23T12:14:56.938Z,1926.00
2023-05-23T12:15:56.844Z,1925.00
2023-05-23T12:16:56.937Z,1924.00
2023-05-23T12:17:56.911Z,1921.00
2023-05-23T12:18:56.885Z,1917.00
2023-05-23T12:19:56.949Z,1917.00
2023-05-23T12:20:56.757Z,1910.00
2023-05-23T12:21:56.769Z,1905.00
2023-05-23T12:22:56.761Z,1901.00
2023-05-23T12:23:56.745Z,1896.00
2023-05-23T12:24:56.950Z,1892.00
2023-05-23T12:25:56.981Z,1889.00
2023-05-23T12:26:56.725Z,1886.00
2023-05-23T12:27:56.740Z,1887.00